Rexburg, ID

7:04 AM MDT on August 28, 2014 (GMT -0600)
Rexburg-Madison County | Change Station
CLOSE
Current Station
Airport
Location: Rexburg,
Elevation: 4859 ft
Nearby Weather Stations

Elev 4859 ft 43.83 °N, 111.81 °W | Updated 11 minutes ago

Clear
Clear
47 °F
Feels Like 47 °F
N
0
Wind Variable Wind from North

Today
High -- | Low -- °F
--% Chance of Precip.
Yesterday
High -- | Low -- °F
Precip. -- in
6:46 AM 8:09 PM
Waxing Crescent, 8% visible
Pressure 30.14 in
Visibility 10.0 miles
Clouds Clear
Dew Point 44 °F
Humidity 90%
Rainfall 0.00 in
Snow Depth Not available.
UV 0 out of 12
Pollen 8.60 out of 12
PM2.5 Good
Flu Activity Not available.
METAR KRXE 281253Z AUTO 00000KT 10SM CLR 08/07 A3023 RMK AO2 SLP206 T00830067

More Conditions Fewer Conditions

Pressure 30.14 in
Visibility 10.0 miles
Clouds Clear
Dew Point 44 °F
Humidity 90%
Rainfall 0.00 in
Snow Depth Not available.
UV 0 out of 12
Pollen 8.60 out of 12
PM2.5 Good
Flu Activity Not available.
METAR KRXE 281253Z AUTO 00000KT 10SM CLR 08/07 A3023 RMK AO2 SLP206 T00830067

More Conditions Fewer Conditions

10-Day Weather Forecast

Almanac

Astronomy

Aug. 28, 2014 Rise Set
Actual Time 6:46 AM MDT 8:09 PM MDT
Civil Twilight 6:16 AM MDT 8:39 PM MDT
Nautical Twilight 5:40 AM MDT 9:15 PM MDT
Astronomical Twilight 5:01 AM MDT 9:53 PM MDT
Moon 9:49 AM MDT 9:27 PM MDT
Length of Visible Light 14h 23m
Length of Day
13h 23m
Tomorrow will be 2m 51s shorter.
Waxing Crescent, 8% of the Moon is Illuminated
Today
Waxing Crescent
Sep 2
First Quarter
Sep 8
Full
Sep 15
Last Quarter
Sep 24
New

Today's Extremes

State Highs State Lows

Community

WunderPhotos

Upload Photos

1,747,946 photos uploaded!

Nearby

Air Quality

  Air Quality AQ Index Pollutant
Yesterday Good
PM2.5
Current Good
PM2.5
Thursday Good
PM2.5

Snow Depth

Station Depth Elevation
Pine Creek Pass 0 in 6720 ft
Crab Creek 0 in 6860 ft
Sheep Mountain 0 in 6570 ft
Island Park 0 in 6290 ft
White Elephant 0 in 7710 ft

Earthquake Activity

City Distance Mag. Time & Date
No recent earthquake activity has been reported nearby.
Minimum magnitude displayed is 2.5.

Coastal Water Temperatures

Place Temperature
No Stations Reporting

Nearby Weather Stations